Lakeview, AR (72642)

7:59 PM CDT on August 30, 2015 (GMT -0500)
High Ridge | | Change Station
CLOSE
Current Station
Personal Weather Station
Location: Midway-Lakeview, AR
Elevation: 900 ft
Nearby Weather Stations

Elev 900 ft 36.39 °N, 92.49 °W | Updated 22 seconds ago

Clear
Clear
76.8 °F
Feels Like 78 °F
N
1.7
Wind Variable Wind from East
Gusts 2.3 mph

Today
High -- | Low -- °F
--% Chance of Precip.
Yesterday
High -- | Low -- °F
Precip. -- in
6:39 AM 7:41 PM
Full, 98% visible
Pressure 29.96 in
Visibility 8.0 miles
Clouds Clear
Heat Index 78 °F
Dew Point 73 °F
Humidity 88%
Rainfall 0.62 in
Snow Depth Not available.
UV 0 out of 12
Pollen 10.00 out of 12
Air Quality Not available.
Flu Activity Not available.
METAR KBPK 310053Z AUTO 11003KT 8SM CLR 26/22 A2999 RMK AO2 SLP146 T02610217
Pressure 29.96 in
Visibility 8.0 miles
Clouds Clear
Heat Index 78 °F
Dew Point 73 °F
Humidity 88%
Rainfall 0.62 in
Snow Depth Not available.
UV 0 out of 12
Pollen 10.00 out of 12
Air Quality Not available.
Flu Activity Not available.
METAR KBPK 310053Z AUTO 11003KT 8SM CLR 26/22 A2999 RMK AO2 SLP146 T02610217

10-Day Weather Forecast

×

Almanac

Astronomy

Aug. 30, 2015 Rise Set
Actual Time
Civil Twilight
Nautical Twilight
Astronomical Twilight
Moon
Length of Visible Light
Length of Day
Tomorrow will be .
, % of the Moon is Illuminated

Today's Extremes

State Highs State Lows

Community

WunderPhotos

Upload Photos

1,851,116 photos uploaded!

WunderBlogs® & News

Nearby

Air Quality

  Air Quality AQ Index Pollutant
Not available.

Snow Depth

Station Depth Elevation

Earthquake Activity

City Distance Mag. Time & Date
Minimum magnitude displayed is 2.5.

Coastal Water Temperatures

Place Temperature

Stations

Nearby Weather Stations

Station Location Temp. Windchill Dew Point Humidity Wind Precip. Elev Updated Type